Slangkop, South Africa

5:08 PM SAST on September 05, 2015 (GMT +0200)
Klein Slangkop, Kommetjie | | Change Station
CLOSE
Current Station
Personal Weather Station
Location: Cape Town, WESTERN CAPE
Elevation: 30 ft
Nearby Weather Stations

Elev 30 ft 34.13 °S, 18.34 °E | Updated 5 minutes ago

Clear
Clear
71.4 °F
Feels Like 77 °F
N
1.0
Wind Variable Wind from ENE
Gusts 4.0 mph

Today
High -- | Low -- °F
--% Chance of Precip.
Yesterday
High -- | Low -- °F
Precip. -- in
7:00 AM 6:31 PM
Waning Gibbous, 48% visible
Pressure 30.04 in
Visibility -9999.0 miles
Clouds
Heat Index 77 °F
Dew Point 51 °F
Humidity 48%
Rainfall Not available.
Snow Depth Not available.
UV Not available.
Pollen Not available.
Air Quality Not available.
Flu Activity Not available.
METAR FACT 051500Z 15008KT CAVOK 24/11 Q1017 NOSIG
Pressure 30.04 in
Visibility -9999.0 miles
Clouds
Heat Index 77 °F
Dew Point 51 °F
Humidity 48%
Rainfall Not available.
Snow Depth Not available.
UV Not available.
Pollen Not available.
Air Quality Not available.
Flu Activity Not available.
METAR FACT 051500Z 15008KT CAVOK 24/11 Q1017 NOSIG

10-Day Weather Forecast

×

Almanac

Astronomy

Sep. 05, 2015 Rise Set
Actual Time
Civil Twilight
Nautical Twilight
Astronomical Twilight
Moon
Length of Visible Light
Length of Day
Tomorrow will be .
, % of the Moon is Illuminated

Today's Extremes

Country Highs Country Lows

Community

WunderPhotos

Upload Photos

1,852,480 photos uploaded!

WunderBlogs® & News

Nearby

Air Quality

  Air Quality AQ Index Pollutant
Not available.

Snow Depth

Station Depth Elevation

Earthquake Activity

City Distance Mag. Time & Date
Minimum magnitude displayed is 2.5.

Coastal Water Temperatures

Place Temperature

Stations

Nearby Weather Stations

Station Location Temp. Windchill Dew Point Humidity Wind Precip. Elev Updated Type